Terminal Aerodrome Forecast
Issued by NWS

Home | Current Version | Previous Version | Graphics & Text | Print | Product List | Glossary On
Versions: 1 2 3 4 5 6 7 8 9 10 11 12 13 14 15
686
FTUS43 KUNR 151822 AAA
TAFGCC
TAF AMD
KGCC 151822Z 1518/1618 27006KT P6SM OVC040
      TEMPO 1520/1523 -SHRA SCT015 OVC040
     FM152300 01008KT P6SM BKN150
     FM160300 31004KT P6SM SCT200
     FM160500 26004KT P6SM SCT200
     FM161600 20005KT P6SM FEW200=

USA.gov is the U.S. government's official web portal to all federal, state and local government web resources and services.